createdAt,value
2022-08-16T00:01:59.882Z,99074.60
2022-08-16T00:04:34.410Z,99073.80
2022-08-16T00:07:08.608Z,99068.40
2022-08-16T00:09:43.915Z,99073.20
2022-08-16T00:12:18.215Z,99074.80
2022-08-16T00:14:56.583Z,99077.00
2022-08-16T00:17:56.040Z,99081.00
2022-08-16T00:20:25.994Z,99078.00
2022-08-16T00:23:00.317Z,99076.80
2022-08-16T00:26:33.306Z,99074.60
2022-08-16T00:28:29.859Z,99076.20
2022-08-16T00:31:03.877Z,99080.60
2022-08-16T00:33:38.448Z,99082.80
2022-08-16T00:36:13.584Z,99071.20
2022-08-16T00:38:47.744Z,99078.20
2022-08-16T00:41:23.139Z,99073.00
2022-08-16T00:43:57.559Z,99072.40
2022-08-16T00:46:37.788Z,99071.40
2022-08-16T00:49:27.261Z,99072.20
2022-08-16T00:52:01.286Z,99076.00
2022-08-16T00:54:36.404Z,99079.60
2022-08-16T00:57:11.624Z,99080.40
2022-08-16T00:59:54.776Z,99089.20
2022-08-16T01:02:33.801Z,99098.20
2022-08-16T01:05:11.535Z,99094.60
2022-08-16T01:07:52.093Z,99102.00
2022-08-16T01:10:33.392Z,99103.00
2022-08-16T01:13:16.269Z,99099.60
2022-08-16T01:15:57.954Z,99100.60
2022-08-16T01:18:41.492Z,99102.20
2022-08-16T01:21:36.250Z,99101.60
2022-08-16T01:24:52.180Z,99109.20
2022-08-16T01:27:34.727Z,99101.40
2022-08-16T01:30:19.964Z,99100.40
2022-08-16T01:33:02.371Z,99098.80
2022-08-16T01:35:45.343Z,99094.60
2022-08-16T01:38:28.284Z,99099.40
2022-08-16T01:41:10.403Z,99092.80
2022-08-16T01:43:53.866Z,99094.20
2022-08-16T01:46:39.731Z,99093.00
2022-08-16T01:49:42.907Z,99089.40
2022-08-16T01:52:29.252Z,99094.80
2022-08-16T01:55:35.551Z,99102.40
2022-08-16T01:58:12.233Z,99106.00
2022-08-16T02:00:48.086Z,99111.80
2022-08-16T02:03:26.680Z,99115.00
2022-08-16T02:06:00.941Z,99110.00
2022-08-16T02:08:36.000Z,99107.60
2022-08-16T02:11:13.626Z,99105.20
2022-08-16T02:13:48.572Z,99107.20
2022-08-16T02:16:28.848Z,99107.00
2022-08-16T02:19:16.176Z,99108.20
2022-08-16T02:22:08.402Z,99109.20
2022-08-16T02:24:45.868Z,99121.60
2022-08-16T02:27:20.414Z,99123.60
2022-08-16T02:30:05.585Z,99130.40
2022-08-16T02:33:01.143Z,99125.00
2022-08-16T02:35:54.434Z,99122.60
2022-08-16T02:38:33.171Z,99115.40
2022-08-16T02:41:09.802Z,99118.60
2022-08-16T02:43:46.185Z,99113.60
2022-08-16T02:46:20.257Z,99119.20
2022-08-16T02:49:05.872Z,99117.80
2022-08-16T02:51:43.173Z,99123.00
2022-08-16T02:54:17.356Z,99120.60
2022-08-16T02:56:52.684Z,99120.40
2022-08-16T02:59:28.784Z,99121.80
2022-08-16T03:02:16.153Z,99120.40
2022-08-16T03:04:52.751Z,99121.00
2022-08-16T03:07:28.744Z,99120.00
2022-08-16T03:10:03.359Z,99123.20
2022-08-16T03:12:55.476Z,99126.80
2022-08-16T03:15:32.708Z,99129.40
2022-08-16T03:18:12.692Z,99136.80
2022-08-16T03:21:01.249Z,99137.40
2022-08-16T03:23:36.484Z,99146.80
2022-08-16T03:26:11.013Z,99142.60
2022-08-16T03:28:45.203Z,99145.20
2022-08-16T03:31:20.714Z,99141.20
2022-08-16T03:33:55.096Z,99142.80
2022-08-16T03:36:32.780Z,99147.00
2022-08-16T03:39:14.808Z,99151.80
2022-08-16T03:41:59.631Z,99155.20
2022-08-16T03:44:44.633Z,99159.00
2022-08-16T03:47:24.074Z,99163.80
2022-08-16T03:49:59.134Z,99167.20
2022-08-16T03:52:33.358Z,99165.20
2022-08-16T03:55:14.654Z,99166.00
2022-08-16T03:57:52.412Z,99167.80
2022-08-16T04:00:36.098Z,99167.00
2022-08-16T04:03:18.744Z,99174.60
2022-08-16T04:05:54.100Z,99176.20
2022-08-16T04:08:31.307Z,99175.00
2022-08-16T04:11:08.872Z,99183.60
2022-08-16T04:14:01.460Z,99175.00
2022-08-16T04:16:41.005Z,99184.00
2022-08-16T04:19:31.724Z,99183.80
2022-08-16T04:22:08.687Z,99193.40
2022-08-16T04:24:54.361Z,99192.00
2022-08-16T04:27:32.893Z,99203.20
2022-08-16T04:30:32.379Z,99204.00
2022-08-16T04:33:10.364Z,99209.40
2022-08-16T04:35:49.701Z,99210.40
2022-08-16T04:38:24.273Z,99210.00
2022-08-16T04:40:59.833Z,99209.00
2022-08-16T04:43:38.563Z,99209.80
2022-08-16T04:46:32.044Z,99212.80
2022-08-16T04:49:12.819Z,99216.60
2022-08-16T04:51:53.908Z,99214.80
2022-08-16T04:54:29.431Z,99215.80
2022-08-16T04:57:03.674Z,99218.00
2022-08-16T04:59:38.365Z,99217.00
2022-08-16T05:02:40.918Z,99219.80
2022-08-16T05:05:17.799Z,99210.40
2022-08-16T05:07:58.192Z,99211.60
2022-08-16T05:10:35.349Z,99214.60
2022-08-16T05:13:15.565Z,99217.60
2022-08-16T05:15:50.276Z,99223.00
2022-08-16T05:18:30.380Z,99221.20
2022-08-16T05:21:11.144Z,99220.00
2022-08-16T05:23:55.421Z,99216.20
2022-08-16T05:26:32.848Z,99216.20
2022-08-16T05:29:07.602Z,99219.80
2022-08-16T05:31:48.285Z,99219.40
2022-08-16T05:34:27.573Z,99210.00
2022-08-16T05:37:01.975Z,99212.20
2022-08-16T05:39:41.680Z,99217.60
2022-08-16T05:42:15.687Z,99216.20
2022-08-16T05:44:53.732Z,99221.20
2022-08-16T05:47:27.856Z,99223.80
2022-08-16T05:50:04.706Z,99227.20
2022-08-16T05:52:41.192Z,99232.80
2022-08-16T05:55:20.547Z,99234.60
2022-08-16T05:57:58.014Z,99233.80
2022-08-16T06:00:32.594Z,99234.80
2022-08-16T06:03:06.963Z,99231.00
2022-08-16T06:06:08.965Z,99235.00
2022-08-16T06:08:46.362Z,99239.20
2022-08-16T06:11:22.268Z,99238.20
2022-08-16T06:14:02.415Z,99238.80
2022-08-16T06:16:45.102Z,99237.40
2022-08-16T06:19:26.296Z,99235.00
2022-08-16T06:22:37.198Z,99235.60
2022-08-16T06:25:11.163Z,99233.20
2022-08-16T06:27:57.429Z,99237.00
2022-08-16T06:30:32.494Z,99232.40
2022-08-16T06:33:12.512Z,99235.80
2022-08-16T06:35:48.213Z,99243.20
2022-08-16T06:38:34.059Z,99246.80
2022-08-16T06:41:15.393Z,99243.60
2022-08-16T06:43:49.808Z,99251.40
2022-08-16T06:46:34.597Z,99247.40
2022-08-16T06:49:17.918Z,99245.80
2022-08-16T06:51:52.722Z,99242.20
2022-08-16T06:54:34.446Z,99240.20
2022-08-16T06:57:16.465Z,99244.60
2022-08-16T06:59:58.134Z,99247.60
2022-08-16T07:02:51.732Z,99250.60
2022-08-16T07:05:41.558Z,99257.00
2022-08-16T07:08:24.412Z,99260.80
2022-08-16T07:11:03.162Z,99262.80
2022-08-16T07:14:03.723Z,99260.00
2022-08-16T07:16:41.951Z,99262.80
2022-08-16T07:19:17.211Z,99266.20
2022-08-16T07:21:59.442Z,99264.20
2022-08-16T07:24:45.824Z,99258.80
2022-08-16T07:27:23.279Z,99255.00
2022-08-16T07:30:04.895Z,99259.00
2022-08-16T07:50:55.607Z,99258.00
2022-08-16T07:53:14.554Z,99263.00
2022-08-16T07:55:50.276Z,99261.20
2022-08-16T07:58:36.422Z,99258.40
2022-08-16T08:01:24.797Z,99266.20
2022-08-16T08:04:13.278Z,99269.20
2022-08-16T08:06:52.050Z,99272.80
2022-08-16T08:09:28.005Z,99261.00
2022-08-16T08:12:07.008Z,99265.80
2022-08-16T08:14:46.210Z,99263.00
2022-08-16T08:17:21.355Z,99268.20
2022-08-16T08:20:06.155Z,99270.60
2022-08-16T08:22:46.704Z,99277.40
2022-08-16T08:25:22.721Z,99281.20
2022-08-16T08:27:57.738Z,99281.80
2022-08-16T08:30:51.723Z,99285.40
2022-08-16T08:33:29.363Z,99286.80
2022-08-16T08:36:21.699Z,99292.80
2022-08-16T08:39:00.633Z,99295.00
2022-08-16T08:41:36.285Z,99291.60
2022-08-16T08:44:28.747Z,99294.20
2022-08-16T08:47:12.209Z,99297.40
2022-08-16T08:49:55.794Z,99299.80
2022-08-16T08:52:37.799Z,99297.80
2022-08-16T08:55:23.571Z,99300.40
2022-08-16T08:58:10.322Z,99299.20
2022-08-16T09:01:01.509Z,99293.00
2022-08-16T09:03:37.009Z,99296.60
2022-08-16T09:06:12.989Z,99291.80
2022-08-16T09:08:57.686Z,99294.00
2022-08-16T09:11:48.378Z,99289.80
2022-08-16T09:14:29.002Z,99300.40
2022-08-16T09:17:11.724Z,99299.80
2022-08-16T09:19:52.622Z,99300.20
2022-08-16T09:22:31.105Z,99309.00
2022-08-16T09:25:10.111Z,99309.60
2022-08-16T09:27:56.768Z,99309.00
2022-08-16T09:30:43.112Z,99305.00
2022-08-16T09:33:20.556Z,99300.40
2022-08-16T09:35:56.042Z,99300.00
2022-08-16T09:38:32.956Z,99297.40
2022-08-16T09:41:20.041Z,99301.40
2022-08-16T09:44:00.596Z,99295.80
2022-08-16T09:46:48.288Z,99293.40
2022-08-16T09:49:26.315Z,99292.20
2022-08-16T09:52:12.657Z,99286.20
2022-08-16T09:54:46.976Z,99289.20
2022-08-16T09:57:34.792Z,99293.80
2022-08-16T10:00:44.974Z,99293.20
2022-08-16T10:03:10.617Z,99295.80
2022-08-16T10:05:45.598Z,99293.60
2022-08-16T10:08:25.916Z,99296.20
2022-08-16T10:11:23.941Z,99291.20
2022-08-16T10:13:59.572Z,99292.00
2022-08-16T10:16:33.699Z,99297.20
2022-08-16T10:19:14.297Z,99297.00
2022-08-16T10:21:56.237Z,99300.20
2022-08-16T10:24:31.589Z,99307.40
2022-08-16T10:27:26.719Z,99308.60
2022-08-16T10:30:06.899Z,99313.40
2022-08-16T10:32:56.394Z,99306.40
2022-08-16T10:35:32.918Z,99304.60
2022-08-16T10:38:09.620Z,99301.60
2022-08-16T10:41:02.119Z,99304.80
2022-08-16T10:43:38.418Z,99302.00
2022-08-16T10:46:33.801Z,99302.00
2022-08-16T10:49:11.973Z,99302.00
2022-08-16T10:52:02.736Z,99304.40
2022-08-16T10:54:59.608Z,99301.20
2022-08-16T10:57:35.051Z,99297.20
2022-08-16T11:00:21.143Z,99299.40
2022-08-16T11:03:01.291Z,99292.60
2022-08-16T11:08:39.630Z,99289.80
2022-08-16T11:11:19.796Z,99288.00
2022-08-16T11:13:59.238Z,99287.80
2022-08-16T11:19:30.414Z,99293.40
2022-08-16T11:22:39.129Z,99291.60
2022-08-16T11:28:00.754Z,99291.60
2022-08-16T11:30:41.993Z,99302.00
2022-08-16T11:33:17.156Z,99307.20
2022-08-16T11:38:57.788Z,99297.60
2022-08-16T11:41:36.182Z,99305.40
2022-08-16T11:44:13.608Z,99302.00
2022-08-16T11:46:56.004Z,99305.20
2022-08-16T11:49:34.259Z,99299.80
2022-08-16T11:52:13.567Z,99300.40
2022-08-16T11:54:53.791Z,99309.00
2022-08-16T11:57:34.691Z,99309.60
2022-08-16T12:00:42.684Z,99303.20
2022-08-16T12:03:11.210Z,99299.20
2022-08-16T12:05:51.841Z,99309.60
2022-08-16T12:08:30.663Z,99303.80
2022-08-16T12:11:07.026Z,99305.40
2022-08-16T12:13:42.884Z,99302.40
2022-08-16T12:16:17.598Z,99301.60
2022-08-16T12:18:54.828Z,99294.60
2022-08-16T12:21:57.782Z,99291.60
2022-08-16T12:24:24.056Z,99295.40
2022-08-16T12:27:00.432Z,99296.40
2022-08-16T12:29:36.885Z,99290.80
2022-08-16T12:32:37.429Z,99288.80
2022-08-16T12:35:09.387Z,99287.20
2022-08-16T12:37:46.063Z,99287.00
2022-08-16T12:40:29.085Z,99284.80
2022-08-16T12:43:08.476Z,99283.40
2022-08-16T12:45:47.317Z,99276.40
2022-08-16T12:48:48.197Z,99272.80
2022-08-16T12:51:32.821Z,99271.00
2022-08-16T12:54:23.962Z,99275.60
2022-08-16T12:56:58.454Z,99275.20
2022-08-16T12:59:34.033Z,99275.60
2022-08-16T13:02:22.860Z,99273.60
2022-08-16T13:05:09.308Z,99270.20
2022-08-16T13:07:51.690Z,99273.60
2022-08-16T13:10:38.104Z,99273.00
2022-08-16T13:13:16.979Z,99267.60
2022-08-16T13:15:55.917Z,99265.20
2022-08-16T13:18:36.336Z,99262.20
2022-08-16T13:21:12.380Z,99267.20
2022-08-16T13:23:47.474Z,99264.00
2022-08-16T13:26:26.468Z,99270.40
2022-08-16T13:29:00.801Z,99269.80
2022-08-16T13:31:35.147Z,99269.60
2022-08-16T13:34:09.716Z,99267.80
2022-08-16T13:36:49.300Z,99265.00
2022-08-16T13:39:28.081Z,99265.80
2022-08-16T13:42:10.335Z,99259.00
2022-08-16T13:44:48.724Z,99262.20
2022-08-16T13:47:32.528Z,99259.00
2022-08-16T13:50:11.340Z,99257.00
2022-08-16T13:52:46.043Z,99251.40
2022-08-16T13:55:20.375Z,99254.20
2022-08-16T13:58:37.395Z,99249.40
2022-08-16T14:00:48.950Z,99247.40
2022-08-16T14:03:28.600Z,99243.20
2022-08-16T14:06:04.781Z,99245.00
2022-08-16T14:09:06.068Z,99245.20
2022-08-16T14:11:42.209Z,99244.40
2022-08-16T14:14:20.152Z,99244.40
2022-08-16T14:17:09.684Z,99245.20
2022-08-16T14:19:53.345Z,99242.20
2022-08-16T14:22:40.127Z,99243.60
2022-08-16T14:25:21.833Z,99241.00
2022-08-16T14:27:57.625Z,99242.20
2022-08-16T14:30:33.422Z,99239.80
2022-08-16T14:33:08.558Z,99250.40
2022-08-16T14:35:49.181Z,99250.20
2022-08-16T14:38:25.074Z,99254.80
2022-08-16T14:41:17.712Z,99247.60
2022-08-16T14:44:04.657Z,99247.20
2022-08-16T14:46:41.111Z,99252.40
2022-08-16T14:49:15.716Z,99255.20
2022-08-16T14:51:52.284Z,99258.00
2022-08-16T14:54:30.524Z,99262.20
2022-08-16T14:57:04.960Z,99255.60
2022-08-16T14:59:43.775Z,99257.20
2022-08-16T15:02:33.959Z,99258.40
2022-08-16T15:05:14.473Z,99256.40
2022-08-16T15:07:50.799Z,99259.60
2022-08-16T15:10:29.146Z,99259.60
2022-08-16T15:13:06.050Z,99261.80
2022-08-16T15:15:56.255Z,99261.20
2022-08-16T15:18:33.796Z,99260.80
2022-08-16T15:21:09.518Z,99258.20
2022-08-16T15:23:43.849Z,99258.00
2022-08-16T15:26:34.863Z,99261.80
2022-08-16T15:29:16.101Z,99259.00
2022-08-16T15:31:50.615Z,99258.80
2022-08-16T15:34:35.232Z,99264.00
2022-08-16T15:37:10.952Z,99264.60
2022-08-16T15:39:48.472Z,99267.00
2022-08-16T15:42:29.064Z,99263.80
2022-08-16T15:45:11.289Z,99262.00
2022-08-16T15:47:55.475Z,99259.20
2022-08-16T15:50:30.767Z,99261.00
2022-08-16T15:53:12.373Z,99266.20
2022-08-16T15:55:49.183Z,99268.80
2022-08-16T15:58:34.595Z,99272.20
2022-08-16T16:01:10.288Z,99269.60
2022-08-16T16:03:44.646Z,99270.00
2022-08-16T16:06:28.169Z,99270.80
2022-08-16T16:09:02.865Z,99276.60
2022-08-16T16:11:38.482Z,99276.40
2022-08-16T16:14:12.422Z,99275.60
2022-08-16T16:16:50.878Z,99278.20
2022-08-16T16:19:28.083Z,99281.60
2022-08-16T16:22:02.655Z,99290.20
2022-08-16T16:24:37.973Z,99292.40
2022-08-16T16:27:15.607Z,99299.40
2022-08-16T16:29:50.910Z,99293.40
2022-08-16T16:32:35.932Z,99293.60
2022-08-16T16:35:12.106Z,99297.80
2022-08-16T16:37:46.605Z,99296.80
2022-08-16T16:40:32.799Z,99299.80
2022-08-16T16:43:09.410Z,99297.20
2022-08-16T16:45:48.836Z,99295.80
2022-08-16T16:48:29.837Z,99296.00
2022-08-16T16:51:11.530Z,99298.60
2022-08-16T16:53:56.231Z,99303.20
2022-08-16T16:56:36.898Z,99307.00
2022-08-16T16:59:13.391Z,99308.40
2022-08-16T17:01:59.762Z,99309.20
2022-08-16T17:04:45.216Z,99307.60
2022-08-16T17:07:20.544Z,99312.00
2022-08-16T17:09:58.382Z,99314.40
2022-08-16T17:12:46.347Z,99317.00
2022-08-16T17:15:22.185Z,99317.40
2022-08-16T17:18:00.410Z,99323.40
2022-08-16T17:20:36.057Z,99329.80
2022-08-16T17:23:11.706Z,99328.00
2022-08-16T17:25:45.729Z,99333.20
2022-08-16T17:28:58.754Z,99329.40
2022-08-16T17:31:20.527Z,99328.80
2022-08-16T17:34:30.826Z,99335.00
2022-08-16T17:37:08.015Z,99338.80
2022-08-16T17:39:59.687Z,99339.80
2022-08-16T17:42:34.746Z,99337.80
2022-08-16T17:45:11.863Z,99337.40
2022-08-16T17:47:45.745Z,99342.60
2022-08-16T17:50:20.501Z,99344.40
2022-08-16T17:52:58.722Z,99345.40
2022-08-16T17:55:36.839Z,99346.20
2022-08-16T17:58:23.637Z,99348.80
2022-08-16T18:01:02.004Z,99346.40
2022-08-16T18:04:08.685Z,99351.20
2022-08-16T18:06:34.661Z,99348.60
2022-08-16T18:09:09.440Z,99348.80
2022-08-16T18:11:44.711Z,99349.00
2022-08-16T18:14:19.329Z,99354.40
2022-08-16T18:17:15.505Z,99354.80
2022-08-16T18:19:49.455Z,99357.00
2022-08-16T18:22:30.715Z,99365.20
2022-08-16T18:25:07.452Z,99363.80
2022-08-16T18:27:41.377Z,99363.00
2022-08-16T18:30:18.965Z,99362.20
2022-08-16T18:32:54.506Z,99366.80
2022-08-16T18:35:28.590Z,99368.80
2022-08-16T18:38:02.560Z,99371.60
2022-08-16T18:40:36.846Z,99372.00
2022-08-16T18:43:17.263Z,99379.00
2022-08-16T18:45:56.002Z,99372.40
2022-08-16T18:48:31.105Z,99378.80
2022-08-16T18:51:10.311Z,99373.80
2022-08-16T18:53:45.786Z,99378.80
2022-08-16T18:56:19.830Z,99384.00
2022-08-16T18:58:53.793Z,99381.20
2022-08-16T19:01:28.283Z,99387.20
2022-08-16T19:04:04.538Z,99379.60
2022-08-16T19:07:01.603Z,99380.20
2022-08-16T19:09:36.149Z,99379.40
2022-08-16T19:12:11.727Z,99382.20
2022-08-16T19:14:50.904Z,99380.20
2022-08-16T19:17:25.415Z,99386.40
2022-08-16T19:19:59.814Z,99388.20
2022-08-16T19:23:01.556Z,99391.40
2022-08-16T19:25:46.325Z,99391.40
2022-08-16T19:28:51.294Z,99395.60
2022-08-16T19:31:25.883Z,99402.40
2022-08-16T19:34:00.430Z,99405.00
2022-08-16T19:36:39.739Z,99402.60
2022-08-16T19:39:18.606Z,99403.20
2022-08-16T19:41:54.216Z,99406.00
2022-08-16T19:44:30.012Z,99405.80
2022-08-16T19:47:04.335Z,99409.80
2022-08-16T19:49:39.357Z,99410.20
2022-08-16T19:52:23.147Z,99406.60
2022-08-16T19:55:04.975Z,99406.40
2022-08-16T19:57:39.822Z,99405.80
2022-08-16T20:00:20.312Z,99410.80
2022-08-16T20:02:59.773Z,99410.00
2022-08-16T20:05:39.982Z,99409.00
2022-08-16T20:08:15.643Z,99408.80
2022-08-16T20:10:51.617Z,99410.80
2022-08-16T20:13:28.403Z,99416.20
2022-08-16T20:16:02.516Z,99415.80
2022-08-16T20:18:36.813Z,99416.00
2022-08-16T20:21:11.248Z,99419.20
2022-08-16T20:23:45.252Z,99423.40
2022-08-16T20:26:19.663Z,99425.80
2022-08-16T20:28:55.183Z,99428.00
2022-08-16T20:31:30.326Z,99430.40
2022-08-16T20:34:05.757Z,99430.00
2022-08-16T20:36:39.891Z,99429.00
2022-08-16T20:39:14.944Z,99422.80
2022-08-16T20:41:49.147Z,99427.20
2022-08-16T20:44:25.236Z,99424.20
2022-08-16T20:46:59.477Z,99424.60
2022-08-16T20:49:33.686Z,99423.40
2022-08-16T20:52:11.708Z,99423.20
2022-08-16T20:54:46.877Z,99421.20
2022-08-16T20:57:20.989Z,99422.00
2022-08-16T20:59:55.064Z,99419.60
2022-08-16T21:02:30.417Z,99423.60
2022-08-16T21:05:06.922Z,99419.40
2022-08-16T21:07:42.933Z,99421.20
2022-08-16T21:10:17.149Z,99420.40
2022-08-16T21:12:57.954Z,99422.00
2022-08-16T21:15:34.667Z,99420.40
2022-08-16T21:18:08.568Z,99418.40
2022-08-16T21:20:42.527Z,99422.40
2022-08-16T21:23:16.436Z,99422.00
2022-08-16T21:25:58.794Z,99420.80
2022-08-16T21:28:40.138Z,99429.20
2022-08-16T21:31:19.459Z,99427.00
2022-08-16T21:33:55.207Z,99430.00
2022-08-16T21:36:35.633Z,99431.20
2022-08-16T21:39:11.173Z,99432.40
2022-08-16T21:41:45.027Z,99434.80
2022-08-16T21:44:18.969Z,99437.40
2022-08-16T21:46:53.001Z,99441.40
2022-08-16T21:49:26.990Z,99444.60
2022-08-16T21:52:01.109Z,99448.20
2022-08-16T21:54:38.767Z,99442.20
2022-08-16T21:57:13.836Z,99443.60
2022-08-16T21:59:48.035Z,99449.00
2022-08-16T22:02:25.936Z,99441.80
2022-08-16T22:05:10.635Z,99445.60
2022-08-16T22:07:44.633Z,99446.20
2022-08-16T22:11:04.668Z,99443.80
2022-08-16T22:13:24.295Z,99449.00
2022-08-16T22:15:59.133Z,99457.40
2022-08-16T22:18:33.339Z,99457.60
2022-08-16T22:21:07.562Z,99458.40
2022-08-16T22:23:42.076Z,99459.40
2022-08-16T22:26:16.074Z,99457.40
2022-08-16T22:28:51.359Z,99457.60
2022-08-16T22:31:25.633Z,99463.40
2022-08-16T22:34:01.826Z,99466.20
2022-08-16T22:36:38.959Z,99464.40
2022-08-16T22:39:16.343Z,99463.00
2022-08-16T22:41:51.197Z,99461.20
2022-08-16T22:44:25.363Z,99458.20
2022-08-16T22:46:59.755Z,99455.20
2022-08-16T22:49:34.529Z,99466.60
2022-08-16T22:52:13.591Z,99462.40
2022-08-16T22:55:09.666Z,99457.80
2022-08-16T22:57:43.732Z,99454.60
2022-08-16T23:00:22.579Z,99449.20
2022-08-16T23:03:04.467Z,99449.20
2022-08-16T23:05:42.360Z,99449.40
2022-08-16T23:08:38.633Z,99451.80
2022-08-16T23:11:19.680Z,99447.00
2022-08-16T23:13:55.976Z,99449.20
2022-08-16T23:16:34.773Z,99448.20
2022-08-16T23:19:13.793Z,99448.00
2022-08-16T23:21:50.043Z,99449.00
2022-08-16T23:24:25.515Z,99447.20
2022-08-16T23:26:59.383Z,99447.20
2022-08-16T23:29:33.331Z,99451.00
2022-08-16T23:32:15.788Z,99447.80
2022-08-16T23:34:49.701Z,99442.40
2022-08-16T23:37:27.064Z,99440.40
2022-08-16T23:40:01.041Z,99443.40
2022-08-16T23:42:52.238Z,99444.80
2022-08-16T23:45:30.048Z,99440.40
2022-08-16T23:48:05.514Z,99443.60
2022-08-16T23:50:44.622Z,99440.80
2022-08-16T23:53:21.835Z,99442.20
2022-08-16T23:55:59.692Z,99441.20
2022-08-16T23:58:36.770Z,99441.80
